Station Historical Data
Daily Summary for August 08, 2012 Units:  English    Metric   Both
« Previous Day
Next Day »
Daily Weekly Monthly Yearly Custom
  High: Low: Average:
Temperature: 92.8 °F 71.3 °F 81.3 °F
Dew Point: 77.7 °F 68.2 °F 72.2 °F
Humidity: 92% 45% 76%
Wind Speed: 6.0mph 0.0mph 1.5mph
Wind Gust: 6.0mph - -
Wind- - SSE
Pressure: 29.97 in 29.85 in -
Precipitation: 0.01 in    
Historical Graphs
 
 
Tabular Data for August 08, 2012
Time Temperature Dew Point Pressure Wind Wind Speed Wind Gust Humidity Rainfall Rate (Hourly) Conditions
00:00 75.1 °F 72.6 °F 29.92 in Calm     92% 0.00 in
00:02 75.2 °F 72.7 °F 29.92 in Calm     92% 0.00 in
00:07 75.5 °F 73.0 °F 29.92 in Calm     92% 0.00 in
00:12 75.5 °F 73.0 °F 29.92 in NNE 1.0 mph 2.0 mph 92% 0.00 in
00:17 75.5 °F 73.0 °F 29.92 in NNE 2.0 mph 2.0 mph 92% 0.00 in
00:22 75.7 °F 73.2 °F 29.92 in NE 1.0 mph 2.0 mph 92% 0.00 in
00:27 76.1 °F 73.6 °F 29.92 in NE 1.0 mph 2.0 mph 92% 0.00 in
00:32 76.2 °F 73.4 °F 29.92 in NE 1.0 mph 2.0 mph 91% 0.00 in
00:37 76.1 °F 73.3 °F 29.92 in NE 2.0 mph 2.0 mph 91% 0.00 in
00:42 76.1 °F 73.3 °F 29.92 in NE 1.0 mph 3.0 mph 91% 0.00 in
00:47 75.9 °F 73.1 °F 29.92 in NE 2.0 mph 2.0 mph 91% 0.00 in
00:52 75.8 °F 73.0 °F 29.92 in NNE 1.0 mph 2.0 mph 91% 0.00 in
00:57 75.7 °F 72.9 °F 29.93 in Calm   1.0 mph 91% 0.00 in
01:02 75.5 °F 72.7 °F 29.93 in SE 1.0 mph 2.0 mph 91% 0.00 in
01:07 75.2 °F 72.4 °F 29.93 in Calm   1.0 mph 91% 0.00 in
01:12 75.0 °F 72.5 °F 29.93 in ESE 2.0 mph 3.0 mph 92% 0.00 in
01:17 75.0 °F 72.5 °F 29.93 in SE 1.0 mph 1.0 mph 92% 0.00 in
01:22 74.9 °F 72.4 °F 29.93 in SE 2.0 mph 2.0 mph 92% 0.00 in
01:27 74.7 °F 72.2 °F 29.94 in SE 1.0 mph 2.0 mph 92% 0.00 in
01:32 74.6 °F 72.1 °F 29.93 in ESE 2.0 mph 2.0 mph 92% 0.00 in
01:37 74.6 °F 72.1 °F 29.93 in Calm   2.0 mph 92% 0.00 in
01:42 74.7 °F 72.2 °F 29.93 in Calm   2.0 mph 92% 0.00 in
01:47 75.0 °F 72.5 °F 29.92 in Calm   2.0 mph 92% 0.00 in
01:52 75.2 °F 72.4 °F 29.92 in Calm   1.0 mph 91% 0.00 in
01:58 74.8 °F 72.0 °F 29.92 in East 1.0 mph 1.0 mph 91% 0.00 in
02:02 74.7 °F 72.2 °F 29.92 in Calm   1.0 mph 92% 0.00 in
02:08 74.9 °F 72.1 °F 29.92 in ENE 1.0 mph 1.0 mph 91% 0.00 in
02:13 74.7 °F 72.2 °F 29.92 in Calm   1.0 mph 92% 0.00 in
02:18 74.6 °F 72.1 °F 29.92 in Calm     92% 0.00 in
02:23 74.4 °F 71.9 °F 29.92 in Calm     92% 0.00 in
02:28 74.3 °F 71.8 °F 29.91 in Calm     92% 0.00 in
02:33 74.4 °F 71.9 °F 29.91 in ENE 1.0 mph 1.0 mph 92% 0.00 in
02:38 74.4 °F 71.9 °F 29.91 in SE 1.0 mph 1.0 mph 92% 0.00 in
02:43 74.5 °F 72.0 °F 29.91 in Calm   1.0 mph 92% 0.00 in
02:48 74.2 °F 71.4 °F 29.91 in Calm   1.0 mph 91% 0.00 in
02:53 73.9 °F 71.4 °F 29.91 in Calm     92% 0.00 in
02:58 73.6 °F 71.1 °F 29.91 in Calm     92% 0.00 in
03:03 73.3 °F 70.8 °F 29.91 in Calm     92% 0.00 in
03:08 73.1 °F 70.6 °F 29.91 in Calm     92% 0.00 in
03:13 72.8 °F 70.3 °F 29.90 in Calm     92% 0.00 in
03:18 72.8 °F 70.3 °F 29.90 in Calm     92% 0.00 in
03:23 72.9 °F 70.4 °F 29.91 in Calm   1.0 mph 92% 0.00 in
03:28 72.9 °F 70.4 °F 29.90 in NNE 1.0 mph 1.0 mph 92% 0.00 in
03:33 72.7 °F 70.2 °F 29.91 in NNW 2.0 mph 2.0 mph 92% 0.00 in
03:38 72.5 °F 70.1 °F 29.91 in North 1.0 mph 2.0 mph 92% 0.00 in
03:43 72.4 °F 69.9 °F 29.91 in NNW 1.0 mph 1.0 mph 92% 0.00 in
03:48 72.5 °F 70.1 °F 29.91 in North 2.0 mph 2.0 mph 92% 0.00 in
03:53 72.4 °F 69.9 °F 29.91 in North 1.0 mph 2.0 mph 92% 0.00 in
03:58 72.3 °F 69.8 °F 29.91 in North 1.0 mph 1.0 mph 92% 0.00 in
04:03 72.6 °F 70.2 °F 29.91 in NNE 1.0 mph 2.0 mph 92% 0.00 in
04:08 72.5 °F 70.1 °F 29.90 in Calm     92% 0.00 in
04:13 72.5 °F 70.1 °F 29.91 in Calm     92% 0.00 in
04:18 72.4 °F 69.9 °F 29.91 in NNE 1.0 mph 1.0 mph 92% 0.00 in
04:23 72.3 °F 69.8 °F 29.91 in Calm     92% 0.00 in
04:28 72.1 °F 69.7 °F 29.91 in East 1.0 mph 1.0 mph 92% 0.00 in
04:33 72.1 °F 69.7 °F 29.91 in East 1.0 mph 1.0 mph 92% 0.00 in
04:38 72.2 °F 69.8 °F 29.91 in Calm     92% 0.00 in
04:43 71.9 °F 69.4 °F 29.91 in ESE 4.0 mph 4.0 mph 92% 0.00 in
04:48 71.8 °F 69.3 °F 29.91 in ESE 2.0 mph 3.0 mph 92% 0.00 in
04:53 71.8 °F 69.3 °F 29.91 in East 2.0 mph 3.0 mph 92% 0.00 in
04:58 72.0 °F 69.6 °F 29.91 in ESE 2.0 mph 2.0 mph 92% 0.00 in
05:03 71.9 °F 69.4 °F 29.91 in East 1.0 mph 2.0 mph 92% 0.00 in
05:09 71.9 °F 69.4 °F 29.91 in ESE 1.0 mph 2.0 mph 92% 0.00 in
05:14 71.8 °F 69.3 °F 29.91 in Calm   1.0 mph 92% 0.00 in
05:19 72.0 °F 69.6 °F 29.91 in Calm   1.0 mph 92% 0.00 in
05:24 72.1 °F 69.7 °F 29.92 in Calm   1.0 mph 92% 0.00 in
05:29 72.0 °F 69.6 °F 29.92 in Calm     92% 0.00 in
05:34 71.7 °F 69.3 °F 29.92 in Calm     92% 0.00 in
05:39 71.6 °F 69.2 °F 29.92 in NNE 1.0 mph 2.0 mph 92% 0.00 in
05:44 71.6 °F 69.2 °F 29.92 in Calm   1.0 mph 92% 0.00 in
05:49 71.7 °F 69.3 °F 29.92 in Calm     92% 0.00 in
05:54 71.5 °F 69.1 °F 29.92 in Calm     92% 0.00 in
05:59 71.7 °F 69.3 °F 29.92 in Calm     92% 0.00 in
06:04 71.9 °F 69.4 °F 29.92 in ESE 2.0 mph 2.0 mph 92% 0.00 in
06:09 72.1 °F 69.7 °F 29.92 in East 1.0 mph 2.0 mph 92% 0.00 in
06:14 72.2 °F 69.8 °F 29.93 in ESE 1.0 mph 2.0 mph 92% 0.00 in
06:19 72.1 °F 69.7 °F 29.93 in ESE 3.0 mph 3.0 mph 92% 0.00 in
06:24 72.2 °F 69.8 °F 29.93 in ESE 2.0 mph 5.0 mph 92% 0.00 in
06:29 72.2 °F 69.8 °F 29.93 in Calm   2.0 mph 92% 0.00 in
06:34 72.1 °F 69.7 °F 29.93 in Calm     92% 0.00 in
06:39 72.0 °F 69.6 °F 29.93 in Calm     92% 0.00 in
06:44 71.8 °F 69.3 °F 29.93 in Calm     92% 0.00 in
06:49 71.6 °F 69.2 °F 29.93 in Calm     92% 0.00 in
06:54 71.4 °F 69.0 °F 29.93 in Calm     92% 0.00 in
06:59 71.3 °F 68.9 °F 29.93 in Calm     92% 0.00 in
07:04 71.4 °F 69.0 °F 29.93 in Calm     92% 0.00 in
07:09 71.7 °F 69.3 °F 29.93 in ESE 1.0 mph 2.0 mph 92% 0.00 in
07:14 71.9 °F 69.4 °F 29.93 in Calm   1.0 mph 92% 0.00 in
07:19 71.9 °F 69.4 °F 29.93 in Calm     92% 0.00 in
07:24 71.9 °F 69.4 °F 29.93 in Calm     92% 0.00 in
07:29 71.7 °F 69.3 °F 29.93 in Calm     92% 0.00 in
07:34 72.0 °F 69.6 °F 29.93 in ESE 1.0 mph 2.0 mph 92% 0.00 in
07:39 72.2 °F 69.8 °F 29.93 in SE 3.0 mph 3.0 mph 92% 0.00 in
07:44 72.7 °F 69.9 °F 29.93 in SSE 3.0 mph 4.0 mph 91% 0.00 in
07:49 72.9 °F 70.1 °F 29.93 in South 2.0 mph 3.0 mph 91% 0.00 in
07:54 73.0 °F 70.2 °F 29.94 in SSE 2.0 mph 4.0 mph 91% 0.00 in
07:59 73.4 °F 70.6 °F 29.94 in SSE 1.0 mph 3.0 mph 91% 0.00 in
08:04 73.7 °F 70.9 °F 29.94 in SW 1.0 mph 2.0 mph 91% 0.00 in
08:09 73.7 °F 70.9 °F 29.94 in SSW 2.0 mph 3.0 mph 91% 0.00 in
08:14 73.9 °F 71.1 °F 29.94 in Calm   1.0 mph 91% 0.00 in
08:19 74.2 °F 71.4 °F 29.94 in Calm   1.0 mph 91% 0.00 in
08:24 74.3 °F 71.5 °F 29.94 in West 1.0 mph 1.0 mph 91% 0.00 in
08:29 74.5 °F 71.7 °F 29.95 in SE 1.0 mph 1.0 mph 91% 0.00 in
08:34 74.7 °F 71.9 °F 29.95 in Calm   1.0 mph 91% 0.00 in
08:39 74.8 °F 72.0 °F 29.95 in West 1.0 mph 2.0 mph 91% 0.00 in
08:44 74.8 °F 72.0 °F 29.95 in Calm   1.0 mph 91% 0.00 in
08:50 75.0 °F 72.2 °F 29.95 in SSW 1.0 mph 1.0 mph 91% 0.00 in
08:55 75.3 °F 72.5 °F 29.95 in SSW 1.0 mph 1.0 mph 91% 0.00 in
09:00 76.2 °F 73.4 °F 29.95 in Calm     91% 0.00 in
09:05 76.4 °F 73.6 °F 29.95 in Calm     91% 0.00 in
09:10 76.2 °F 73.4 °F 29.95 in Calm     91% 0.00 in
09:15 76.6 °F 73.8 °F 29.95 in West 2.0 mph 2.0 mph 91% 0.00 in
09:20 76.6 °F 74.1 °F 29.95 in SW 1.0 mph 2.0 mph 92% 0.00 in
09:25 76.6 °F 74.1 °F 29.95 in WSW 2.0 mph 3.0 mph 92% 0.00 in
09:30 77.0 °F 74.5 °F 29.96 in WSW 2.0 mph 3.0 mph 92% 0.00 in
09:35 77.7 °F 75.2 °F 29.96 in Calm   3.0 mph 92% 0.00 in
09:40 78.5 °F 75.7 °F 29.96 in South 2.0 mph 3.0 mph 91% 0.00 in
09:45 79.2 °F 76.0 °F 29.96 in West 2.0 mph 2.0 mph 90% 0.00 in
09:50 79.5 °F 75.6 °F 29.96 in SW 2.0 mph 3.0 mph 88% 0.00 in
09:55 80.1 °F 76.2 °F 29.96 in SW 3.0 mph 3.0 mph 88% 0.00 in
10:00 80.6 °F 76.4 °F 29.96 in WSW 2.0 mph 3.0 mph 87% 0.00 in
10:05 81.1 °F 76.9 °F 29.96 in Calm   3.0 mph 87% 0.00 in
10:10 81.8 °F 77.6 °F 29.96 in WNW 2.0 mph 3.0 mph 87% 0.00 in
10:15 81.8 °F 76.8 °F 29.96 in WSW 5.0 mph 5.0 mph 85% 0.00 in
10:20 81.9 °F 77.3 °F 29.96 in West 3.0 mph 6.0 mph 86% 0.00 in
10:25 82.3 °F 77.0 °F 29.96 in WNW 3.0 mph 5.0 mph 84% 0.00 in
10:30 82.8 °F 77.5 °F 29.96 in WNW 2.0 mph 3.0 mph 84% 0.00 in
10:35 83.0 °F 77.7 °F 29.96 in WNW 3.0 mph 4.0 mph 84% 0.00 in
10:40 83.3 °F 76.5 °F 29.97 in West 2.0 mph 4.0 mph 80% 0.00 in
10:45 83.5 °F 77.1 °F 29.97 in WNW 5.0 mph 5.0 mph 81% 0.00 in
10:50 83.6 °F 77.2 °F 29.97 in West 2.0 mph 3.0 mph 81% 0.00 in
10:55 83.8 °F 77.0 °F 29.97 in Calm   4.0 mph 80% 0.00 in
11:00 84.4 °F 77.2 °F 29.97 in WNW 3.0 mph 4.0 mph 79% 0.00 in
11:05 84.3 °F 77.1 °F 29.97 in WNW 3.0 mph 5.0 mph 79% 0.00 in
11:10 84.5 °F 76.1 °F 29.97 in WNW 2.0 mph 4.0 mph 76% 0.00 in
11:15 84.7 °F 76.7 °F 29.97 in Calm   2.0 mph 77% 0.00 in
11:20 85.0 °F 77.0 °F 29.97 in NW 5.0 mph 5.0 mph 77% 0.00 in
11:25 85.1 °F 76.3 °F 29.97 in West 2.0 mph 3.0 mph 75% 0.00 in
11:30 85.6 °F 77.6 °F 29.97 in Calm   1.0 mph 77% 0.00 in
11:35 86.0 °F 77.2 °F 29.97 in NNE 1.0 mph 4.0 mph 75% 0.00 in
11:40 86.1 °F 76.0 °F 29.97 in WNW 4.0 mph 4.0 mph 72% 0.00 in
11:45 86.4 °F 77.1 °F 29.96 in West 1.0 mph 3.0 mph 74% 0.00 in
11:50 86.5 °F 74.7 °F 29.97 in WSW 2.0 mph 3.0 mph 68% 0.00 in
11:55 87.3 °F 75.9 °F 29.96 in ENE 3.0 mph 3.0 mph 69% 0.00 in
12:00 87.7 °F 76.3 °F 29.96 in Calm   2.0 mph 69% 0.00 in
12:05 88.5 °F 76.2 °F 29.96 in North 2.0 mph 6.0 mph 67% 0.00 in
12:10 88.7 °F 75.9 °F 29.96 in SE 1.0 mph 2.0 mph 66% 0.00 in
12:15 89.2 °F 75.9 °F 29.96 in WNW 2.0 mph 3.0 mph 65% 0.00 in
12:20 88.3 °F 73.2 °F 29.96 in West 1.0 mph 4.0 mph 61% 0.00 in
12:25 88.2 °F 74.0 °F 29.96 in West 1.0 mph 3.0 mph 63% 0.00 in
12:30 88.5 °F 71.8 °F 29.96 in NNW 1.0 mph 5.0 mph 58% 0.00 in
12:35 88.2 °F 72.6 °F 29.96 in NNE 3.0 mph 3.0 mph 60% 0.00 in
12:40 88.2 °F 71.6 °F 29.96 in NW 1.0 mph 4.0 mph 58% 0.00 in
12:45 88.4 °F 73.2 °F 29.96 in NNE 2.0 mph 5.0 mph 61% 0.00 in
12:50 89.1 °F 70.8 °F 29.96 in Calm   4.0 mph 55% 0.00 in
12:55 89.9 °F 70.5 °F 29.95 in SSE 1.0 mph 2.0 mph 53% 0.00 in
13:00 90.7 °F 73.4 °F 29.95 in WNW 2.0 mph 4.0 mph 57% 0.00 in
13:05 89.9 °F 71.6 °F 29.95 in WNW 2.0 mph 4.0 mph 55% 0.00 in
13:10 88.9 °F 72.2 °F 29.95 in NW 2.0 mph 2.0 mph 58% 0.00 in
13:15 88.5 °F 70.8 °F 29.95 in Calm   1.0 mph 56% 0.00 in
13:20 89.1 °F 71.4 °F 29.95 in SSW 4.0 mph 6.0 mph 56% 0.00 in
13:25 89.2 °F 71.5 °F 29.94 in NNW 3.0 mph 6.0 mph 56% 0.00 in
13:30 89.1 °F 72.9 °F 29.94 in West 2.0 mph 6.0 mph 59% 0.00 in
13:35 89.5 °F 71.7 °F 29.94 in Calm   3.0 mph 56% 0.00 in
13:40 90.2 °F 72.4 °F 29.94 in NW 1.0 mph 2.0 mph 56% 0.00 in
13:45 89.9 °F 71.6 °F 29.94 in West 3.0 mph 5.0 mph 55% 0.00 in
13:50 90.0 °F 71.1 °F 29.94 in East 2.0 mph 2.0 mph 54% 0.00 in
13:55 90.4 °F 73.6 °F 29.94 in WNW 2.0 mph 4.0 mph 58% 0.00 in
14:00 89.9 °F 71.6 °F 29.94 in North 3.0 mph 3.0 mph 55% 0.00 in
14:05 89.7 °F 74.5 °F 29.93 in NW 2.0 mph 3.0 mph 61% 0.00 in
14:10 89.2 °F 71.5 °F 29.94 in West 1.0 mph 2.0 mph 56% 0.00 in
14:15 89.9 °F 73.2 °F 29.94 in Calm   1.0 mph 58% 0.00 in
14:21 90.4 °F 72.6 °F 29.93 in NNW 2.0 mph 4.0 mph 56% 0.00 in
14:26 90.4 °F 70.9 °F 29.93 in NNW 4.0 mph 5.0 mph 53% 0.00 in
14:31 90.3 °F 70.9 °F 29.93 in NNE 4.0 mph 5.0 mph 53% 0.00 in
14:36 90.0 °F 71.7 °F 29.93 in NW 4.0 mph 4.0 mph 55% 0.00 in
14:41 90.1 °F 70.7 °F 29.93 in SW 1.0 mph 2.0 mph 53% 0.00 in
14:46 90.1 °F 71.2 °F 29.93 in WSW 2.0 mph 4.0 mph 54% 0.00 in
14:51 90.5 °F 69.9 °F 29.92 in SE 3.0 mph 4.0 mph 51% 0.00 in
14:56 90.1 °F 69.0 °F 29.92 in SW 1.0 mph 4.0 mph 50% 0.00 in
15:01 90.1 °F 70.7 °F 29.92 in SE 3.0 mph 3.0 mph 53% 0.00 in
15:06 90.3 °F 69.2 °F 29.92 in East 2.0 mph 2.0 mph 50% 0.00 in
15:11 90.8 °F 71.3 °F 29.92 in East 2.0 mph 2.0 mph 53% 0.00 in
15:16 90.9 °F 70.3 °F 29.91 in NW 2.0 mph 4.0 mph 51% 0.00 in
15:21 91.0 °F 69.8 °F 29.91 in NW 3.0 mph 5.0 mph 50% 0.00 in
15:26 90.8 °F 68.4 °F 29.91 in North 2.0 mph 3.0 mph 48% 0.00 in
15:31 90.8 °F 69.0 °F 29.91 in NNW 2.0 mph 5.0 mph 49% 0.00 in
15:37 90.9 °F 69.1 °F 29.91 in Calm   2.0 mph 49% 0.00 in
15:42 91.2 °F 68.2 °F 29.90 in Calm   5.0 mph 47% 0.00 in
15:47 91.7 °F 69.8 °F 29.90 in NNE 2.0 mph 6.0 mph 49% 0.00 in
15:52 91.8 °F 70.5 °F 29.90 in WSW 1.0 mph 5.0 mph 50% 0.00 in
15:57 91.3 °F 70.1 °F 29.90 in NW 2.0 mph 6.0 mph 50% 0.00 in
16:02 91.3 °F 71.2 °F 29.90 in NW 3.0 mph 3.0 mph 52% 0.00 in
16:07 91.2 °F 70.0 °F 29.89 in NNE 3.0 mph 5.0 mph 50% 0.00 in
16:12 91.0 °F 70.4 °F 29.89 in NE 3.0 mph 5.0 mph 51% 0.00 in
16:17 90.8 °F 71.9 °F 29.89 in Calm   3.0 mph 54% 0.00 in
16:22 91.0 °F 69.8 °F 29.89 in NW 2.0 mph 3.0 mph 50% 0.00 in
16:27 91.1 °F 69.9 °F 29.88 in WNW 4.0 mph 4.0 mph 50% 0.00 in
16:32 91.1 °F 71.0 °F 29.88 in West 1.0 mph 2.0 mph 52% 0.00 in
16:37 91.5 °F 71.4 °F 29.88 in ENE 2.0 mph 3.0 mph 52% 0.00 in
16:42 91.7 °F 71.6 °F 29.88 in NNE 1.0 mph 2.0 mph 52% 0.00 in
16:47 91.9 °F 70.0 °F 29.88 in NE 1.0 mph 4.0 mph 49% 0.00 in
16:52 91.7 °F 70.4 °F 29.88 in ESE 3.0 mph 4.0 mph 50% 0.00 in
16:57 91.2 °F 69.4 °F 29.88 in SE 1.0 mph 3.0 mph 49% 0.00 in
17:02 91.1 °F 69.3 °F 29.88 in East 3.0 mph 4.0 mph 49% 0.00 in
17:07 91.0 °F 69.8 °F 29.88 in East 1.0 mph 3.0 mph 50% 0.00 in
17:12 91.3 °F 69.5 °F 29.88 in SE 2.0 mph 2.0 mph 49% 0.00 in
17:17 91.6 °F 72.1 °F 29.87 in ESE 2.0 mph 3.0 mph 53% 0.00 in
17:22 91.8 °F 68.7 °F 29.87 in East 1.0 mph 2.0 mph 47% 0.00 in
17:27 92.6 °F 69.4 °F 29.87 in Calm   2.0 mph 47% 0.00 in
17:32 92.8 °F 68.4 °F 29.87 in ESE 3.0 mph 3.0 mph 45% 0.00 in
17:37 92.1 °F 69.6 °F 29.87 in East 2.0 mph 4.0 mph 48% 0.00 in
17:42 91.6 °F 71.5 °F 29.86 in ESE 5.0 mph 6.0 mph 52% 0.00 in
17:47 91.4 °F 71.9 °F 29.86 in ESE 3.0 mph 4.0 mph 53% 0.00 in
17:52 90.9 °F 74.1 °F 29.86 in SE 2.0 mph 5.0 mph 58% 0.00 in
17:57 90.7 °F 70.7 °F 29.86 in SE 2.0 mph 5.0 mph 52% 0.00 in
18:02 90.6 °F 72.2 °F 29.86 in ESE 6.0 mph 6.0 mph 55% 0.00 in
18:07 90.4 °F 73.1 °F 29.86 in ESE 3.0 mph 5.0 mph 57% 0.00 in
18:12 90.5 °F 72.7 °F 29.86 in ESE 4.0 mph 4.0 mph 56% 0.00 in
18:17 90.4 °F 71.5 °F 29.86 in East 4.0 mph 4.0 mph 54% 0.00 in
18:22 90.5 °F 72.7 °F 29.86 in SE 3.0 mph 5.0 mph 56% 0.00 in
18:27 90.4 °F 72.6 °F 29.85 in SE 2.0 mph 3.0 mph 56% 0.00 in
18:32 90.4 °F 72.6 °F 29.85 in SE 3.0 mph 4.0 mph 56% 0.00 in
18:38 90.2 °F 72.9 °F 29.85 in SE 4.0 mph 4.0 mph 57% 0.00 in
18:43 90.0 °F 71.7 °F 29.86 in SE 2.0 mph 5.0 mph 55% 0.00 in
18:48 90.1 °F 71.2 °F 29.86 in SE 3.0 mph 3.0 mph 54% 0.00 in
18:53 90.2 °F 71.9 °F 29.86 in SSE 2.0 mph 2.0 mph 55% 0.00 in
18:58 90.2 °F 72.9 °F 29.86 in SSE 1.0 mph 2.0 mph 57% 0.00 in
19:03 89.7 °F 71.9 °F 29.86 in SE 1.0 mph 2.0 mph 56% 0.00 in
19:08 89.4 °F 72.2 °F 29.86 in SE 2.0 mph 3.0 mph 57% 0.00 in
19:13 89.3 °F 73.1 °F 29.86 in SE 2.0 mph 3.0 mph 59% 0.00 in
19:18 88.9 °F 73.2 °F 29.86 in SE 2.0 mph 4.0 mph 60% 0.00 in
19:23 88.4 °F 73.2 °F 29.86 in SSE 2.0 mph 2.0 mph 61% 0.00 in
19:28 88.2 °F 74.5 °F 29.86 in SE 1.0 mph 2.0 mph 64% 0.00 in
19:33 87.7 °F 72.1 °F 29.86 in SE 2.0 mph 2.0 mph 60% 0.00 in
19:38 87.5 °F 71.9 °F 29.86 in SE 2.0 mph 2.0 mph 60% 0.00 in
19:43 87.0 °F 72.4 °F 29.86 in SE 1.0 mph 2.0 mph 62% 0.00 in
19:48 86.4 °F 73.7 °F 29.86 in SE 1.0 mph 1.0 mph 66% 0.00 in
19:53 85.8 °F 73.6 °F 29.86 in SSE 1.0 mph 2.0 mph 67% 0.00 in
19:58 85.2 °F 73.4 °F 29.86 in SE 2.0 mph 2.0 mph 68% 0.00 in
20:03 84.7 °F 73.0 °F 29.86 in Calm   1.0 mph 68% 0.00 in
20:08 84.7 °F 73.4 °F 29.86 in SSE 1.0 mph 2.0 mph 69% 0.00 in
20:13 84.5 °F 74.9 °F 29.86 in SSE 1.0 mph 1.0 mph 73% 0.00 in
20:18 84.0 °F 74.0 °F 29.86 in SSE 2.0 mph 2.0 mph 72% 0.00 in
20:23 83.7 °F 74.5 °F 29.86 in SSE 1.0 mph 2.0 mph 74% 0.00 in
20:28 83.5 °F 73.9 °F 29.87 in SSE 2.0 mph 2.0 mph 73% 0.00 in
20:33 83.3 °F 73.8 °F 29.86 in SE 1.0 mph 2.0 mph 73% 0.00 in
20:39 83.1 °F 74.0 °F 29.86 in ESE 1.0 mph 2.0 mph 74% 0.00 in
20:44 82.6 °F 73.9 °F 29.86 in ESE 1.0 mph 1.0 mph 75% 0.00 in
20:49 82.2 °F 73.9 °F 29.87 in ESE 1.0 mph 2.0 mph 76% 0.00 in
20:54 81.8 °F 73.5 °F 29.87 in ESE 2.0 mph 3.0 mph 76% 0.00 in
20:59 82.0 °F 73.3 °F 29.87 in SE 2.0 mph 3.0 mph 75% 0.00 in
21:04 82.1 °F 73.0 °F 29.87 in ESE 2.0 mph 3.0 mph 74% 0.00 in
21:09 82.2 °F 73.1 °F 29.87 in ESE 3.0 mph 4.0 mph 74% 0.00 in
21:14 82.0 °F 73.3 °F 29.87 in ESE 3.0 mph 3.0 mph 75% 0.00 in
21:19 81.9 °F 73.2 °F 29.87 in ESE 3.0 mph 3.0 mph 75% 0.00 in
21:24 81.8 °F 73.1 °F 29.87 in ESE 2.0 mph 3.0 mph 75% 0.00 in
21:29 81.5 °F 72.8 °F 29.87 in East 2.0 mph 3.0 mph 75% 0.00 in
21:34 81.4 °F 72.7 °F 29.87 in ESE 3.0 mph 3.0 mph 75% 0.00 in
21:39 81.3 °F 72.6 °F 29.88 in ESE 2.0 mph 3.0 mph 75% 0.00 in
21:44 80.9 °F 72.6 °F 29.88 in SE 2.0 mph 2.0 mph 76% 0.00 in
21:49 80.8 °F 72.5 °F 29.88 in ESE 3.0 mph 4.0 mph 76% 0.00 in
21:54 80.9 °F 72.6 °F 29.88 in ESE 4.0 mph 4.0 mph 76% 0.00 in
21:59 80.9 °F 72.6 °F 29.88 in ESE 3.0 mph 4.0 mph 76% 0.00 in
22:04 80.8 °F 72.5 °F 29.88 in ESE 4.0 mph 4.0 mph 76% 0.00 in
22:10 80.8 °F 72.5 °F 29.88 in ESE 2.0 mph 4.0 mph 76% 0.00 in
22:15 80.8 °F 72.5 °F 29.88 in SE 2.0 mph 3.0 mph 76% 0.00 in
22:20 80.7 °F 72.8 °F 29.89 in SE 1.0 mph 3.0 mph 77% 0.00 in
22:25 80.4 °F 72.9 °F 29.89 in Calm   1.0 mph 78% 0.00 in
22:30 80.2 °F 72.7 °F 29.89 in Calm     78% 0.00 in
22:35 80.0 °F 72.9 °F 29.89 in Calm     79% 0.00 in
22:40 80.0 °F 72.9 °F 29.89 in SE 1.0 mph 1.0 mph 79% 0.00 in
22:45 79.9 °F 73.2 °F 29.89 in SE 1.0 mph 1.0 mph 80% 0.00 in
22:50 79.8 °F 73.1 °F 29.89 in SE 1.0 mph 1.0 mph 80% 0.00 in
22:55 80.0 °F 73.3 °F 29.89 in SE 1.0 mph 2.0 mph 80% 0.00 in
23:00 80.1 °F 73.4 °F 29.89 in SE 1.0 mph 2.0 mph 80% 0.00 in
23:05 80.1 °F 73.4 °F 29.89 in SE 1.0 mph 1.0 mph 80% 0.00 in
23:10 80.0 °F 73.3 °F 29.89 in ESE 2.0 mph 3.0 mph 80% 0.00 in
23:15 79.9 °F 73.6 °F 29.89 in ESE 2.0 mph 3.0 mph 81% 0.00 in
23:20 79.9 °F 73.6 °F 29.89 in SE 3.0 mph 3.0 mph 81% 0.00 in
23:25 80.0 °F 73.7 °F 29.89 in SE 2.0 mph 2.0 mph 81% 0.00 in
23:30 79.9 °F 73.6 °F 29.89 in SE 1.0 mph 2.0 mph 81% 0.00 in
23:35 79.8 °F 73.4 °F 29.89 in SE 2.0 mph 2.0 mph 81% 0.00 in
23:40 79.9 °F 73.6 °F 29.89 in ESE 2.0 mph 3.0 mph 81% 0.00 in
23:45 79.8 °F 73.8 °F 29.89 in ESE 2.0 mph 2.0 mph 82% 0.00 in
23:50 79.4 °F 73.4 °F 29.89 in East 2.0 mph 2.0 mph 82% 0.00 in
23:55 79.2 °F 73.6 °F 29.89 in ESE 1.0 mph 2.0 mph 83% 0.00 in
Compliments of Weather Underground